Time;durP1;ratioP1;P1;durP2;ratioP2;P2;SDS_P1;SDS_P2;PMS_P1;PMS_P2;Temp;Humidity;BMP_temperature;BMP_pressure;BME280_temperature;BME280_humidity;BME280_pressure;Samples;Min_cycle;Max_cycle;Signal;HPM_P1;HPM_P2
2022/02/23 00:00:12;;;;;;;8.98;3.40;;;;;;;;;;5069803;28;20013;-56
2022/02/23 00:02:38;;;;;;;9.02;3.50;;;;;;;;;;5069366;28;20033;-57
2022/02/23 00:05:04;;;;;;;9.35;3.33;;;;;;;;;;5069360;28;20017;-56
2022/02/23 00:07:30;;;;;;;7.15;3.10;;;;;;;;;;5069651;28;20115;-56
2022/02/23 00:09:57;;;;;;;8.50;3.25;;;;;;;;;;5067325;28;20039;-56
2022/02/23 00:12:23;;;;;;;7.70;3.58;;;;;;;;;;5069156;28;20032;-57
2022/02/23 00:14:49;;;;;;;7.82;3.00;;;;;;;;;;5068771;28;20454;-57
2022/02/23 00:17:15;;;;;;;8.05;3.17;;;;;;;;;;5065803;28;20552;-57
2022/02/23 00:19:41;;;;;;;8.63;3.08;;;;;;;;;;5068128;28;20451;-56
2022/02/23 00:22:07;;;;;;;9.15;3.25;;;;;;;;;;5068813;28;20097;-56
2022/02/23 00:24:33;;;;;;;6.82;3.17;;;;;;;;;;5069131;28;20024;-56
2022/02/23 00:26:59;;;;;;;8.00;4.03;;;;;;;;;;5068866;28;20480;-56
2022/02/23 00:29:25;;;;;;;8.13;3.20;;;;;;;;;;5069227;28;20082;-56
2022/02/23 00:31:51;;;;;;;8.45;3.85;;;;;;;;;;5063181;28;20508;-57
2022/02/23 00:34:17;;;;;;;6.97;3.30;;;;;;;;;;5048625;28;20462;-56
2022/02/23 00:36:44;;;;;;;7.55;3.42;;;;;;;;;;5048954;28;20086;-57
2022/02/23 00:39:10;;;;;;;10.52;3.22;;;;;;;;;;5048683;28;20025;-56
2022/02/23 00:41:36;;;;;;;8.68;3.30;;;;;;;;;;5048829;28;20112;-56
2022/02/23 00:44:02;;;;;;;9.15;3.67;;;;;;;;;;5048506;28;20021;-56
2022/02/23 00:46:28;;;;;;;8.80;3.88;;;;;;;;;;5063069;28;20425;-57
2022/02/23 00:48:55;;;;;;;6.90;2.85;;;;;;;;;;5068554;28;20028;-57
2022/02/23 00:51:21;;;;;;;6.32;2.92;;;;;;;;;;5068599;28;20120;-56
2022/02/23 00:53:48;;;;;;;9.43;3.03;;;;;;;;;;5066922;28;20590;-56
2022/02/23 00:56:14;;;;;;;9.00;3.38;;;;;;;;;;5068228;28;20036;-56
2022/02/23 00:58:40;;;;;;;10.50;3.33;;;;;;;;;;5068892;28;20020;-56
2022/02/23 01:01:06;;;;;;;6.38;2.97;;;;;;;;;;5068074;28;20029;-56
2022/02/23 01:03:32;;;;;;;7.15;2.55;;;;;;;;;;5083516;28;20028;-57
2022/02/23 01:05:58;;;;;;;6.82;3.10;;;;;;;;;;5068135;28;20699;-56
2022/02/23 01:08:24;;;;;;;9.32;3.63;;;;;;;;;;5068046;28;20024;-56
2022/02/23 01:10:50;;;;;;;7.28;3.13;;;;;;;;;;5058427;28;20033;-59
2022/02/23 01:13:18;;;;;;;8.23;3.30;;;;;;;;;;5047937;28;20033;-58
2022/02/23 01:15:44;;;;;;;5.85;2.80;;;;;;;;;;5048220;28;20381;-58
2022/02/23 01:18:10;;;;;;;8.23;2.78;;;;;;;;;;5048119;28;20061;-58
2022/02/23 01:20:36;;;;;;;5.53;2.47;;;;;;;;;;5048209;28;20703;-58
2022/02/23 01:23:03;;;;;;;7.95;2.88;;;;;;;;;;5047526;28;20029;-58
2022/02/23 01:25:31;;;;;;;7.03;2.30;;;;;;;;;;5047007;28;20032;-58
2022/02/23 01:28:01;;;;;;;9.20;3.58;;;;;;;;;;5064639;28;20024;-59
2022/02/23 01:30:27;;;;;;;9.13;3.05;;;;;;;;;;5068103;28;20124;-58
2022/02/23 01:32:53;;;;;;;9.27;3.53;;;;;;;;;;5067755;28;20025;-59
2022/02/23 01:35:19;;;;;;;6.88;2.72;;;;;;;;;;5068289;28;20104;-58
2022/02/23 01:37:45;;;;;;;6.20;2.70;;;;;;;;;;5067878;28;20025;-58
2022/02/23 01:40:12;;;;;;;6.57;2.72;;;;;;;;;;5068020;28;20438;-59
2022/02/23 01:42:38;;;;;;;5.15;2.53;;;;;;;;;;5049329;28;20025;-58
2022/02/23 01:45:05;;;;;;;6.95;2.80;;;;;;;;;;5047797;28;20025;-58
2022/02/23 01:47:31;;;;;;;6.38;3.10;;;;;;;;;;5047745;28;20043;-58
2022/02/23 01:49:57;;;;;;;7.65;2.83;;;;;;;;;;5047755;28;20468;-58
2022/02/23 01:52:25;;;;;;;7.97;3.08;;;;;;;;;;5047765;28;20412;-58
2022/02/23 01:54:54;;;;;;;9.80;2.78;;;;;;;;;;5048146;28;20040;-58
2022/02/23 01:57:21;;;;;;;8.80;3.10;;;;;;;;;;5064403;28;20032;-58
2022/02/23 01:59:47;;;;;;;7.45;2.88;;;;;;;;;;5067897;28;20024;-58
2022/02/23 02:02:13;;;;;;;9.40;2.97;;;;;;;;;;5067492;28;20217;-56
2022/02/23 02:04:39;;;;;;;5.57;2.47;;;;;;;;;;5067935;28;20474;-56
2022/02/23 02:07:05;;;;;;;9.27;2.88;;;;;;;;;;5067314;28;20651;-56
2022/02/23 02:09:31;;;;;;;6.43;1.67;;;;;;;;;;5067775;28;20442;-57
2022/02/23 02:11:57;;;;;;;6.38;2.30;;;;;;;;;;5066092;28;20128;-56
2022/02/23 02:14:23;;;;;;;3.88;1.60;;;;;;;;;;5067590;28;20032;-56
2022/02/23 02:16:50;;;;;;;4.15;1.67;;;;;;;;;;5067520;28;20023;-57
2022/02/23 02:19:16;;;;;;;4.65;1.52;;;;;;;;;;5067186;28;20025;-56
2022/02/23 02:21:53;;;;;;;4.60;1.70;;;;;;;;;;5067873;28;20086;-56
2022/02/23 02:24:20;;;;;;;3.55;1.77;;;;;;;;;;5048395;28;20041;-56
2022/02/23 02:26:46;;;;;;;6.53;2.03;;;;;;;;;;5047565;28;20032;-56
2022/02/23 02:29:13;;;;;;;6.38;1.83;;;;;;;;;;5047387;28;20060;-56
2022/02/23 02:31:39;;;;;;;4.75;1.90;;;;;;;;;;5047358;28;20029;-56
2022/02/23 02:34:05;;;;;;;5.65;1.88;;;;;;;;;;5047073;28;20044;-56
2022/02/23 02:36:31;;;;;;;4.40;1.80;;;;;;;;;;5047541;28;20120;-56
2022/02/23 02:38:57;;;;;;;4.60;1.95;;;;;;;;;;5066729;28;20115;-57
2022/02/23 02:41:23;;;;;;;6.28;2.15;;;;;;;;;;5069571;28;20480;-56
2022/02/23 02:43:49;;;;;;;5.72;2.38;;;;;;;;;;5051159;28;20025;-57
2022/02/23 02:46:15;;;;;;;7.97;2.80;;;;;;;;;;5050525;28;20054;-57
2022/02/23 02:48:41;;;;;;;8.07;2.75;;;;;;;;;;5051036;28;20148;-56
2022/02/23 02:51:07;;;;;;;6.32;2.92;;;;;;;;;;5050660;28;20029;-56
2022/02/23 02:53:33;;;;;;;6.75;2.85;;;;;;;;;;5050798;28;20037;-57
2022/02/23 02:55:59;;;;;;;6.90;2.75;;;;;;;;;;5058364;28;20020;-56
2022/02/23 02:58:26;;;;;;;5.82;2.50;;;;;;;;;;5070871;28;20519;-56
2022/02/23 03:00:52;;;;;;;6.47;2.78;;;;;;;;;;5070401;28;20033;-57
2022/02/23 03:03:18;;;;;;;4.88;2.30;;;;;;;;;;5070574;28;20024;-56
2022/02/23 03:05:44;;;;;;;6.78;2.67;;;;;;;;;;5070716;28;20051;-56
2022/02/23 03:08:10;;;;;;;6.07;2.58;;;;;;;;;;5070529;28;20024;-56
2022/02/23 03:10:38;;;;;;;5.05;2.33;;;;;;;;;;5068566;28;20589;-56
2022/02/23 03:13:04;;;;;;;6.78;2.42;;;;;;;;;;5070096;28;20028;-56
2022/02/23 03:15:30;;;;;;;5.63;2.42;;;;;;;;;;5069673;28;20020;-56
2022/02/23 03:17:56;;;;;;;6.05;2.50;;;;;;;;;;5069183;28;20027;-56
2022/02/23 03:20:22;;;;;;;5.68;2.47;;;;;;;;;;5068356;28;20503;-56
2022/02/23 03:22:49;;;;;;;5.25;1.65;;;;;;;;;;5069753;28;20568;-56
2022/02/23 03:25:15;;;;;;;5.32;1.85;;;;;;;;;;5068865;28;20033;-56
2022/02/23 03:27:41;;;;;;;4.78;1.92;;;;;;;;;;5070463;28;20044;-56
2022/02/23 03:30:07;;;;;;;6.00;2.08;;;;;;;;;;5069496;28;20190;-56
2022/02/23 03:32:33;;;;;;;4.47;1.65;;;;;;;;;;5070085;28;20027;-56
2022/02/23 03:34:59;;;;;;;6.00;2.58;;;;;;;;;;5069922;28;20109;-56
2022/02/23 03:37:26;;;;;;;4.22;2.10;;;;;;;;;;5070169;28;20024;-56
2022/02/23 03:39:52;;;;;;;5.15;2.17;;;;;;;;;;5068852;28;20486;-56
2022/02/23 03:42:18;;;;;;;5.18;2.45;;;;;;;;;;5070031;28;20039;-56
2022/02/23 03:44:44;;;;;;;7.05;2.30;;;;;;;;;;5069825;28;20099;-56
2022/02/23 03:47:11;;;;;;;7.22;2.20;;;;;;;;;;5069936;28;20044;-56
2022/02/23 03:49:37;;;;;;;5.03;2.25;;;;;;;;;;5068983;28;20443;-56
2022/02/23 03:52:03;;;;;;;4.05;2.40;;;;;;;;;;5069426;28;20029;-56
2022/02/23 03:54:29;;;;;;;5.18;2.03;;;;;;;;;;5067055;28;20017;-56
2022/02/23 03:56:56;;;;;;;4.35;2.10;;;;;;;;;;5069449;28;20496;-56
2022/02/23 03:59:22;;;;;;;4.80;2.45;;;;;;;;;;5063377;28;20082;-56
2022/02/23 04:01:48;;;;;;;9.30;2.42;;;;;;;;;;5049595;28;20032;-56
2022/02/23 04:04:16;;;;;;;5.97;2.70;;;;;;;;;;5049433;28;20048;-56
2022/02/23 04:06:42;;;;;;;6.32;2.83;;;;;;;;;;5053234;28;20397;-56
2022/02/23 04:09:09;;;;;;;5.45;2.35;;;;;;;;;;5069215;28;20028;-56
2022/02/23 04:11:35;;;;;;;4.97;2.25;;;;;;;;;;5061024;28;20021;-56
2022/02/23 04:14:02;;;;;;;6.63;2.67;;;;;;;;;;5048965;28;20040;-56
2022/02/23 04:16:28;;;;;;;6.25;2.55;;;;;;;;;;5054704;28;20031;-56
2022/02/23 04:18:54;;;;;;;5.47;2.35;;;;;;;;;;5069142;28;20516;-56
2022/02/23 04:21:20;;;;;;;5.47;2.20;;;;;;;;;;5069152;28;20048;-56
2022/02/23 04:23:47;;;;;;;5.10;2.42;;;;;;;;;;5068968;28;20032;-56
2022/02/23 04:26:13;;;;;;;5.55;2.38;;;;;;;;;;5068353;28;20116;-56
2022/02/23 04:28:39;;;;;;;3.55;2.20;;;;;;;;;;5069593;28;20365;-56
2022/02/23 04:31:06;;;;;;;3.30;2.17;;;;;;;;;;5068634;28;20025;-56
2022/02/23 04:33:32;;;;;;;6.43;2.53;;;;;;;;;;5068955;28;20024;-57
2022/02/23 04:35:58;;;;;;;6.63;2.70;;;;;;;;;;5068737;28;20028;-56
2022/02/23 04:38:24;;;;;;;5.50;2.55;;;;;;;;;;5068998;28;20488;-56
2022/02/23 04:40:50;;;;;;;5.38;2.50;;;;;;;;;;5066721;28;20027;-58
2022/02/23 04:43:16;;;;;;;6.25;2.55;;;;;;;;;;5068703;28;20081;-56
2022/02/23 04:45:43;;;;;;;3.25;1.95;;;;;;;;;;5068664;28;20043;-56
2022/02/23 04:48:09;;;;;;;4.43;2.00;;;;;;;;;;5069067;28;20403;-57
2022/02/23 04:50:35;;;;;;;3.25;1.75;;;;;;;;;;5068947;28;20025;-56
2022/02/23 04:53:01;;;;;;;4.85;2.20;;;;;;;;;;5068237;28;20025;-56
2022/02/23 04:55:27;;;;;;;3.90;2.00;;;;;;;;;;5053355;28;20033;-56
2022/02/23 04:57:53;;;;;;;6.57;3.10;;;;;;;;;;5048319;28;20063;-57
2022/02/23 05:00:19;;;;;;;11.35;5.40;;;;;;;;;;5060977;28;20434;-57
2022/02/23 05:02:45;;;;;;;11.32;5.10;;;;;;;;;;5068343;28;20025;-56
2022/02/23 05:05:12;;;;;;;8.07;4.35;;;;;;;;;;5068622;28;20024;-56
2022/02/23 05:07:38;;;;;;;6.13;3.80;;;;;;;;;;5068426;28;20529;-57
2022/02/23 05:10:04;;;;;;;9.43;4.22;;;;;;;;;;5068170;28;20707;-56
2022/02/23 05:12:31;;;;;;;6.35;3.70;;;;;;;;;;5068155;28;20107;-56
2022/02/23 05:14:57;;;;;;;6.28;3.65;;;;;;;;;;5066637;28;20032;-56
2022/02/23 05:17:24;;;;;;;6.85;3.20;;;;;;;;;;5068229;28;20027;-56
2022/02/23 05:19:50;;;;;;;5.50;2.92;;;;;;;;;;5068053;28;20028;-57
2022/02/23 05:22:16;;;;;;;5.45;2.90;;;;;;;;;;5068034;28;20028;-56
2022/02/23 05:24:42;;;;;;;4.70;2.63;;;;;;;;;;5068123;28;20499;-56
2022/02/23 05:27:08;;;;;;;6.45;3.03;;;;;;;;;;5068479;28;20058;-57
2022/02/23 05:29:35;;;;;;;7.88;3.30;;;;;;;;;;5066744;28;20491;-57
2022/02/23 05:32:01;;;;;;;8.52;4.20;;;;;;;;;;5067620;28;20037;-56
2022/02/23 05:34:27;;;;;;;6.00;3.25;;;;;;;;;;5068236;28;20047;-56
2022/02/23 05:36:53;;;;;;;6.55;2.50;;;;;;;;;;5067973;28;20068;-56
2022/02/23 05:39:21;;;;;;;4.65;2.50;;;;;;;;;;5068138;28;20096;-56
2022/02/23 05:41:47;;;;;;;5.43;2.80;;;;;;;;;;5067586;28;20032;-57
2022/02/23 05:44:13;;;;;;;6.65;3.08;;;;;;;;;;5056390;28;20036;-56
2022/02/23 05:46:39;;;;;;;9.27;3.78;;;;;;;;;;5048150;28;20586;-56
2022/02/23 05:49:05;;;;;;;7.20;3.13;;;;;;;;;;5047596;28;20033;-56
2022/02/23 05:51:36;;;;;;;5.90;2.72;;;;;;;;;;5047728;28;20415;-56
2022/02/23 05:54:02;;;;;;;6.18;2.78;;;;;;;;;;5047664;28;20052;-57
2022/02/23 05:56:29;;;;;;;5.05;2.65;;;;;;;;;;5047886;28;20035;-57
2022/02/23 05:58:55;;;;;;;5.03;2.60;;;;;;;;;;5047148;28;20028;-56
2022/02/23 06:01:22;;;;;;;4.82;2.53;;;;;;;;;;5047894;28;20032;-57
2022/02/23 06:03:48;;;;;;;5.40;2.75;;;;;;;;;;5047185;28;20397;-57
2022/02/23 06:06:14;;;;;;;4.13;2.10;;;;;;;;;;5047633;28;20074;-57
2022/02/23 06:08:40;;;;;;;4.78;1.90;;;;;;;;;;5055521;28;20021;-57
2022/02/23 06:11:07;;;;;;;2.85;2.00;;;;;;;;;;5067744;28;20028;-57
2022/02/23 06:13:33;;;;;;;5.30;1.80;;;;;;;;;;5070279;28;20036;-56
2022/02/23 06:16:01;;;;;;;4.30;1.90;;;;;;;;;;5071331;28;20021;-56
2022/02/23 06:18:27;;;;;;;4.68;1.65;;;;;;;;;;5061674;28;20040;-58
2022/02/23 06:20:55;;;;;;;4.15;2.38;;;;;;;;;;5051362;28;20029;-58
2022/02/23 06:23:24;;;;;;;3.78;1.85;;;;;;;;;;5051530;28;20021;-58
2022/02/23 06:25:51;;;;;;;4.53;1.90;;;;;;;;;;5051266;28;20033;-56
2022/02/23 06:28:17;;;;;;;5.80;1.80;;;;;;;;;;5051123;28;20060;-56
2022/02/23 06:30:44;;;;;;;2.20;1.15;;;;;;;;;;5051014;28;20525;-56
2022/02/23 06:33:10;;;;;;;3.13;1.38;;;;;;;;;;5058428;28;20032;-56
2022/02/23 06:35:36;;;;;;;4.30;1.48;;;;;;;;;;5071228;28;20080;-56
2022/02/23 06:38:03;;;;;;;3.72;1.55;;;;;;;;;;5070936;28;20371;-56
2022/02/23 06:40:29;;;;;;;2.03;1.20;;;;;;;;;;5055518;28;20042;-56
2022/02/23 06:42:55;;;;;;;3.22;1.15;;;;;;;;;;5050819;28;20395;-57
2022/02/23 06:45:22;;;;;;;3.35;1.08;;;;;;;;;;5051227;28;20025;-57
2022/02/23 06:47:48;;;;;;;3.40;1.25;;;;;;;;;;5050398;28;20559;-56
2022/02/23 06:50:14;;;;;;;2.05;1.02;;;;;;;;;;5070764;28;20089;-56
2022/02/23 06:52:41;;;;;;;2.60;1.40;;;;;;;;;;5071006;28;20080;-56
2022/02/23 06:55:08;;;;;;;3.33;1.38;;;;;;;;;;5070124;28;20028;-56
2022/02/23 06:57:37;;;;;;;3.75;1.45;;;;;;;;;;5070720;28;20126;-56
2022/02/23 07:00:06;;;;;;;2.55;1.10;;;;;;;;;;5070747;28;20444;-56
2022/02/23 07:02:32;;;;;;;3.60;1.40;;;;;;;;;;5070531;28;20123;-56
2022/02/23 07:04:59;;;;;;;4.30;1.00;;;;;;;;;;5067690;28;20767;-57
2022/02/23 07:07:25;;;;;;;2.60;1.08;;;;;;;;;;5053772;28;20021;-56
2022/02/23 07:09:51;;;;;;;2.15;0.82;;;;;;;;;;5050227;28;20127;-57
2022/02/23 07:12:17;;;;;;;1.85;0.90;;;;;;;;;;5064070;28;20035;-56
2022/02/23 07:14:43;;;;;;;4.55;1.38;;;;;;;;;;5067504;28;20544;-56
2022/02/23 07:17:09;;;;;;;3.22;1.98;;;;;;;;;;5050645;28;20029;-56
2022/02/23 07:19:36;;;;;;;8.02;2.72;;;;;;;;;;5050799;28;20479;-56
2022/02/23 07:22:02;;;;;;;5.75;2.40;;;;;;;;;;5049998;28;20025;-56
2022/02/23 07:24:30;;;;;;;5.85;2.38;;;;;;;;;;5048882;28;20029;-56
2022/02/23 07:26:56;;;;;;;8.07;3.03;;;;;;;;;;5067998;28;20025;-56
2022/02/23 07:29:23;;;;;;;4.38;1.90;;;;;;;;;;5069973;28;20048;-56
2022/02/23 07:31:49;;;;;;;5.50;2.38;;;;;;;;;;5067194;28;20599;-56
2022/02/23 07:34:15;;;;;;;6.03;2.67;;;;;;;;;;5049590;28;20044;-56
2022/02/23 07:36:42;;;;;;;6.70;2.75;;;;;;;;;;5050394;28;20435;-56
2022/02/23 07:39:08;;;;;;;6.65;2.40;;;;;;;;;;5050089;28;20032;-56
2022/02/23 07:41:34;;;;;;;8.27;2.50;;;;;;;;;;5050043;28;20052;-56
2022/02/23 07:44:00;;;;;;;7.75;2.65;;;;;;;;;;5050088;28;20090;-56
2022/02/23 07:46:27;;;;;;;4.35;1.80;;;;;;;;;;5068582;28;20043;-56
2022/02/23 07:48:58;;;;;;;6.20;2.45;;;;;;;;;;5086766;28;20447;-56
2022/02/23 07:51:24;;;;;;;4.70;2.25;;;;;;;;;;5072081;28;20606;-56
2022/02/23 07:53:52;;;;;;;6.50;2.30;;;;;;;;;;5066490;28;20094;-56
2022/02/23 07:56:21;;;;;;;5.78;2.13;;;;;;;;;;5062816;28;20020;-57
2022/02/23 07:58:47;;;;;;;5.93;2.20;;;;;;;;;;5049276;28;20047;-57
2022/02/23 08:01:33;;;;;;;4.95;1.73;;;;;;;;;;5060266;28;20044;-57
2022/02/23 08:04:00;;;;;;;5.28;2.10;;;;;;;;;;5079850;28;20027;-57
2022/02/23 08:06:27;;;;;;;4.70;1.80;;;;;;;;;;5085013;28;20388;-57
2022/02/23 08:08:55;;;;;;;4.93;1.80;;;;;;;;;;5057509;28;20024;-57
2022/02/23 08:11:22;;;;;;;5.63;1.90;;;;;;;;;;5063239;28;20025;-56
2022/02/23 08:13:49;;;;;;;4.60;1.77;;;;;;;;;;5054855;28;20047;-57
2022/02/23 08:21:55;;;;;;;9.77;2.72;;;;;;;;;;5049616;28;20123;-57
2022/02/23 08:24:22;;;;;;;10.23;2.55;;;;;;;;;;5053604;28;20043;-57
2022/02/23 08:26:48;;;;;;;6.80;2.25;;;;;;;;;;5055259;28;20032;-56
2022/02/23 08:29:14;;;;;;;6.30;2.40;;;;;;;;;;5049208;28;20125;-57
2022/02/23 08:31:40;;;;;;;6.63;2.20;;;;;;;;;;5067828;28;20020;-56
2022/02/23 08:34:06;;;;;;;5.78;2.10;;;;;;;;;;5052326;28;20033;-56
2022/02/23 08:36:32;;;;;;;6.60;2.30;;;;;;;;;;5048370;28;20504;-56
2022/02/23 08:38:58;;;;;;;5.22;1.95;;;;;;;;;;5061768;28;20483;-57
2022/02/23 08:41:24;;;;;;;4.15;1.75;;;;;;;;;;5049257;28;20419;-56
2022/02/23 08:43:51;;;;;;;3.17;1.45;;;;;;;;;;5059020;28;20502;-57
2022/02/23 08:46:17;;;;;;;2.17;0.90;;;;;;;;;;5067674;28;20024;-56
2022/02/23 08:48:43;;;;;;;4.75;1.70;;;;;;;;;;5058929;28;20036;-56
2022/02/23 08:51:09;;;;;;;4.63;1.45;;;;;;;;;;5065497;28;20109;-57
2022/02/23 08:53:36;;;;;;;6.25;1.83;;;;;;;;;;5079815;28;20033;-56
2022/02/23 08:56:02;;;;;;;6.80;2.05;;;;;;;;;;5063739;28;20021;-57
2022/02/23 08:58:28;;;;;;;11.68;2.50;;;;;;;;;;5068770;28;20032;-56
2022/02/23 09:00:54;;;;;;;5.85;2.00;;;;;;;;;;5067558;28;20063;-57
2022/02/23 09:03:22;;;;;;;7.55;2.13;;;;;;;;;;5067645;28;20033;-57
2022/02/23 09:05:48;;;;;;;8.35;3.35;;;;;;;;;;5066252;28;20078;-57
2022/02/23 09:08:14;;;;;;;5.65;1.70;;;;;;;;;;5067839;28;20494;-56
2022/02/23 09:10:40;;;;;;;6.50;2.65;;;;;;;;;;5066665;28;20052;-57
2022/02/23 09:13:08;;;;;;;7.00;1.85;;;;;;;;;;5067656;28;20035;-57
2022/02/23 09:15:36;;;;;;;3.58;1.42;;;;;;;;;;5067824;28;20531;-57
2022/02/23 09:18:02;;;;;;;5.25;1.83;;;;;;;;;;5066221;28;20450;-57
2022/02/23 09:20:31;;;;;;;4.65;1.77;;;;;;;;;;5053008;28;20068;-57
2022/02/23 09:22:57;;;;;;;6.53;1.60;;;;;;;;;;5048135;28;20025;-57
2022/02/23 09:25:24;;;;;;;5.50;1.67;;;;;;;;;;5047490;28;20534;-57
2022/02/23 09:27:51;;;;;;;6.93;1.70;;;;;;;;;;5047839;28;20057;-57
2022/02/23 09:30:17;;;;;;;6.30;2.20;;;;;;;;;;5059007;28;20032;-57
2022/02/23 09:32:43;;;;;;;3.35;1.50;;;;;;;;;;5059254;28;20113;-57
2022/02/23 09:35:10;;;;;;;5.70;1.85;;;;;;;;;;5056463;28;20507;-56
2022/02/23 09:37:37;;;;;;;2.92;1.30;;;;;;;;;;5067544;28;20550;-57
2022/02/23 09:40:05;;;;;;;3.00;1.40;;;;;;;;;;5067729;28;20028;-57
2022/02/23 09:42:32;;;;;;;2.85;1.40;;;;;;;;;;5053134;28;20029;-57
2022/02/23 09:44:59;;;;;;;2.90;1.30;;;;;;;;;;5047658;28;20037;-57
2022/02/23 09:47:26;;;;;;;2.95;0.93;;;;;;;;;;5046433;28;20540;-57
2022/02/23 09:49:53;;;;;;;1.35;0.98;;;;;;;;;;5045923;28;20029;-57
2022/02/23 09:52:24;;;;;;;2.15;1.27;;;;;;;;;;5046692;28;20029;-57
2022/02/23 09:54:51;;;;;;;2.20;1.15;;;;;;;;;;5053217;28;20105;-56
2022/02/23 09:57:18;;;;;;;3.60;1.15;;;;;;;;;;5067030;28;20020;-57
2022/02/23 09:59:45;;;;;;;1.25;0.80;;;;;;;;;;5062900;28;20499;-57
2022/02/23 10:02:12;;;;;;;1.63;1.10;;;;;;;;;;5051296;28;20025;-57
2022/02/23 10:04:38;;;;;;;2.20;1.23;;;;;;;;;;5047425;28;20052;-57
2022/02/23 10:07:06;;;;;;;3.20;1.00;;;;;;;;;;5047587;28;20503;-57
2022/02/23 10:09:42;;;;;;;2.65;0.90;;;;;;;;;;5047220;28;20108;-56
2022/02/23 10:12:09;;;;;;;1.70;0.70;;;;;;;;;;5047032;28;20100;-57
2022/02/23 10:14:36;;;;;;;1.33;0.70;;;;;;;;;;5060257;28;20047;-57
2022/02/23 10:17:02;;;;;;;2.28;1.20;;;;;;;;;;5067313;28;20029;-57
2022/02/23 10:19:30;;;;;;;3.67;1.27;;;;;;;;;;5066950;28;20406;-57
2022/02/23 10:22:00;;;;;;;3.28;1.38;;;;;;;;;;5065288;28;20055;-57
2022/02/23 10:24:32;;;;;;;2.80;1.10;;;;;;;;;;5047065;28;20025;-57
2022/02/23 10:27:01;;;;;;;2.38;1.00;;;;;;;;;;5046999;28;20033;-57
2022/02/23 10:29:27;;;;;;;3.03;1.38;;;;;;;;;;5048392;28;20033;-56
2022/02/23 10:31:55;;;;;;;7.80;2.78;;;;;;;;;;5048278;28;20127;-57
2022/02/23 10:34:22;;;;;;;5.13;1.90;;;;;;;;;;5059304;28;20040;-57
2022/02/23 10:37:00;;;;;;;6.53;2.08;;;;;;;;;;5066704;28;20036;-57
2022/02/23 10:40:00;;;;;;;3.28;1.48;;;;;;;;;;5061816;28;20400;-57
2022/02/23 10:42:29;;;;;;;4.78;2.10;;;;;;;;;;5059756;28;20047;-57
2022/02/23 10:44:56;;;;;;;4.75;1.83;;;;;;;;;;5067026;28;20125;-57
2022/02/23 10:47:23;;;;;;;6.22;2.50;;;;;;;;;;5065908;28;20032;-57
2022/02/23 10:50:06;;;;;;;11.20;4.18;;;;;;;;;;5058902;28;20029;-57
2022/02/23 10:52:33;;;;;;;7.97;3.40;;;;;;;;;;5045870;28;20110;-57
2022/02/23 10:55:13;;;;;;;6.80;2.97;;;;;;;;;;5047056;28;20151;-57
2022/02/23 10:57:43;;;;;;;7.00;2.88;;;;;;;;;;5047518;28;20120;-57
2022/02/23 11:00:14;;;;;;;6.20;2.88;;;;;;;;;;5057689;28;20028;-57
2022/02/23 11:02:40;;;;;;;6.15;2.38;;;;;;;;;;5057363;28;20475;-57
2022/02/23 11:05:06;;;;;;;4.90;2.28;;;;;;;;;;5057297;28;20108;-57
2022/02/23 11:07:32;;;;;;;10.43;3.45;;;;;;;;;;5068905;28;20563;-57
2022/02/23 11:09:58;;;;;;;8.63;2.92;;;;;;;;;;5069581;28;20176;-57
2022/02/23 11:12:24;;;;;;;7.70;2.53;;;;;;;;;;5069000;28;20028;-57
2022/02/23 11:14:51;;;;;;;5.63;2.50;;;;;;;;;;5070201;28;20088;-57
2022/02/23 11:17:18;;;;;;;6.70;2.38;;;;;;;;;;5068987;28;20491;-57
2022/02/23 11:19:46;;;;;;;7.45;2.63;;;;;;;;;;5070232;28;20259;-57
2022/02/23 11:22:12;;;;;;;5.75;2.40;;;;;;;;;;5068822;28;20053;-57
2022/02/23 11:24:39;;;;;;;3.70;1.65;;;;;;;;;;5070317;28;20473;-57
2022/02/23 11:27:07;;;;;;;6.45;2.60;;;;;;;;;;5068421;28;20032;-57
2022/02/23 11:29:52;;;;;;;4.53;1.92;;;;;;;;;;5065244;28;20033;-57
2022/02/23 11:32:30;;;;;;;4.35;2.30;;;;;;;;;;5061383;28;20032;-57
2022/02/23 11:34:56;;;;;;;4.20;1.98;;;;;;;;;;5065283;28;20112;-56
2022/02/23 11:37:22;;;;;;;3.80;1.90;;;;;;;;;;5057816;28;20444;-56
2022/02/23 11:39:51;;;;;;;2.50;1.30;;;;;;;;;;5061059;28;20081;-57
2022/02/23 11:42:21;;;;;;;3.88;1.40;;;;;;;;;;5064053;28;20029;-57
2022/02/23 11:44:50;;;;;;;3.60;2.00;;;;;;;;;;5060026;28;20100;-57
2022/02/23 11:47:19;;;;;;;3.10;1.50;;;;;;;;;;5056294;28;20044;-57
2022/02/23 11:50:04;;;;;;;2.38;1.33;;;;;;;;;;5067556;28;20037;-57
2022/02/23 11:52:31;;;;;;;1.90;1.30;;;;;;;;;;5056325;28;20035;-57
2022/02/23 11:55:01;;;;;;;2.30;1.05;;;;;;;;;;5062505;28;20059;-57
2022/02/23 11:57:39;;;;;;;1.75;0.95;;;;;;;;;;5059189;28;20112;-57
2022/02/23 12:00:08;;;;;;;2.92;1.00;;;;;;;;;;5058660;28;20029;-59
2022/02/23 12:02:35;;;;;;;1.75;0.70;;;;;;;;;;5053840;28;20440;-57
2022/02/23 12:05:01;;;;;;;2.35;0.63;;;;;;;;;;5052326;28;20109;-58
2022/02/23 12:07:44;;;;;;;1.17;0.60;;;;;;;;;;5051744;28;20048;-57
2022/02/23 12:10:10;;;;;;;1.45;0.52;;;;;;;;;;5057713;28;20032;-57
2022/02/23 12:12:39;;;;;;;0.82;0.60;;;;;;;;;;5067601;28;20064;-58
2022/02/23 12:15:06;;;;;;;1.30;0.70;;;;;;;;;;5068337;28;20082;-57
2022/02/23 12:17:51;;;;;;;1.17;0.70;;;;;;;;;;5063516;28;20715;-57
2022/02/23 12:20:35;;;;;;;0.70;0.70;;;;;;;;;;5058143;28;20033;-57
2022/02/23 12:23:08;;;;;;;2.67;0.68;;;;;;;;;;5049262;28;20103;-57
2022/02/23 12:25:55;;;;;;;1.60;0.55;;;;;;;;;;5050063;28;20036;-57
2022/02/23 12:28:23;;;;;;;0.95;0.50;;;;;;;;;;5055590;28;20028;-57
2022/02/23 12:31:16;;;;;;;2.42;0.93;;;;;;;;;;5064667;28;20032;-57
2022/02/23 12:33:43;;;;;;;1.10;0.60;;;;;;;;;;5053085;28;20037;-57
2022/02/23 12:36:10;;;;;;;0.63;0.50;;;;;;;;;;5057202;28;20033;-57
2022/02/23 12:38:45;;;;;;;1.42;0.70;;;;;;;;;;5060813;28;20100;-57
2022/02/23 12:41:14;;;;;;;1.63;0.85;;;;;;;;;;5056360;28;20499;-57
2022/02/23 12:43:41;;;;;;;1.23;0.40;;;;;;;;;;5069911;28;20032;-57
2022/02/23 12:46:11;;;;;;;1.40;0.60;;;;;;;;;;5060098;28;20147;-58
2022/02/23 12:48:37;;;;;;;1.13;0.60;;;;;;;;;;5049642;28;20025;-57
2022/02/23 12:51:04;;;;;;;0.98;0.60;;;;;;;;;;5061125;28;20036;-57
2022/02/23 12:53:30;;;;;;;1.23;0.60;;;;;;;;;;5057896;28;20024;-57
2022/02/23 12:55:57;;;;;;;1.75;0.70;;;;;;;;;;5063504;28;20480;-57
2022/02/23 12:58:41;;;;;;;2.25;0.70;;;;;;;;;;5048987;28;20029;-57
2022/02/23 13:01:07;;;;;;;1.45;0.70;;;;;;;;;;5062211;28;20032;-57
2022/02/23 13:03:35;;;;;;;0.52;0.50;;;;;;;;;;5062877;28;20040;-57
2022/02/23 13:06:01;;;;;;;0.45;0.43;;;;;;;;;;5050872;28;20029;-58
2022/02/23 13:08:28;;;;;;;0.60;0.60;;;;;;;;;;5060343;28;20029;-58
2022/02/23 13:11:00;;;;;;;0.47;0.45;;;;;;;;;;5054746;28;20492;-57
2022/02/23 13:13:39;;;;;;;0.60;0.55;;;;;;;;;;5057150;28;20047;-58
2022/02/23 13:16:06;;;;;;;0.70;0.60;;;;;;;;;;5049340;28;20017;-57
2022/02/23 13:18:35;;;;;;;0.70;0.50;;;;;;;;;;5053577;28;20036;-58
2022/02/23 13:21:14;;;;;;;1.00;0.60;;;;;;;;;;5049562;28;20378;-57
2022/02/23 13:24:14;;;;;;;1.88;0.85;;;;;;;;;;5064330;28;20032;-58
2022/02/23 13:26:42;;;;;;;2.05;1.30;;;;;;;;;;5066407;28;20457;-57
2022/02/23 13:29:19;;;;;;;1.98;1.08;;;;;;;;;;5068363;28;20102;-58
2022/02/23 13:31:46;;;;;;;2.03;1.00;;;;;;;;;;5056125;28;20112;-57
2022/02/23 13:34:21;;;;;;;1.52;0.85;;;;;;;;;;5064413;28;20036;-57
2022/02/23 13:36:48;;;;;;;1.67;0.68;;;;;;;;;;5067870;28;20057;-57
2022/02/23 13:39:22;;;;;;;0.57;0.57;;;;;;;;;;5067241;28;20021;-58
2022/02/23 13:42:05;;;;;;;1.42;0.68;;;;;;;;;;5047501;28;20035;-57
2022/02/23 13:44:33;;;;;;;0.40;0.40;;;;;;;;;;5052413;28;20092;-57
2022/02/23 13:47:01;;;;;;;0.47;0.40;;;;;;;;;;5048817;28;20415;-57
2022/02/23 13:49:27;;;;;;;1.58;0.80;;;;;;;;;;5048638;28;20488;-57
2022/02/23 13:51:55;;;;;;;0.82;0.60;;;;;;;;;;5048666;28;20056;-57
2022/02/23 13:54:21;;;;;;;0.47;0.32;;;;;;;;;;5052461;28;20056;-57
2022/02/23 13:56:49;;;;;;;1.02;0.60;;;;;;;;;;5068728;28;20043;-57
2022/02/23 13:59:17;;;;;;;1.67;0.80;;;;;;;;;;5059393;28;20109;-57
2022/02/23 14:02:02;;;;;;;1.55;0.70;;;;;;;;;;5048753;28;20032;-57
2022/02/23 14:04:38;;;;;;;1.30;0.73;;;;;;;;;;5062033;28;20963;-58
2022/02/23 14:07:04;;;;;;;1.20;0.63;;;;;;;;;;5068757;28;20017;-57
2022/02/23 14:09:35;;;;;;;1.10;0.70;;;;;;;;;;5059443;28;20092;-57
2022/02/23 14:12:02;;;;;;;1.15;0.80;;;;;;;;;;5059805;28;20024;-57
2022/02/23 14:14:36;;;;;;;1.10;0.60;;;;;;;;;;5057030;28;20037;-57
2022/02/23 14:17:11;;;;;;;0.70;0.50;;;;;;;;;;5054384;28;20024;-56
2022/02/23 14:19:39;;;;;;;0.80;0.43;;;;;;;;;;5066851;28;20074;-56
2022/02/23 14:22:06;;;;;;;0.90;0.70;;;;;;;;;;5065308;28;20021;-56
2022/02/23 14:24:34;;;;;;;1.20;0.60;;;;;;;;;;5050644;28;20884;-56
2022/02/23 14:27:00;;;;;;;0.60;0.40;;;;;;;;;;5066384;28;20074;-56
2022/02/23 14:29:30;;;;;;;0.55;0.55;;;;;;;;;;5060711;28;20048;-56
2022/02/23 14:31:57;;;;;;;0.80;0.50;;;;;;;;;;5064394;28;20029;-56
2022/02/23 14:34:31;;;;;;;0.55;0.50;;;;;;;;;;5049096;28;20028;-56
2022/02/23 14:36:58;;;;;;;1.75;0.73;;;;;;;;;;5056035;28;20074;-56
2022/02/23 14:39:26;;;;;;;0.82;0.50;;;;;;;;;;5069596;28;20074;-56
2022/02/23 14:41:53;;;;;;;1.13;0.55;;;;;;;;;;5070143;28;20029;-56
2022/02/23 14:44:19;;;;;;;0.82;0.47;;;;;;;;;;5068512;28;20094;-56
2022/02/23 14:46:46;;;;;;;1.42;0.63;;;;;;;;;;5056604;28;20065;-56
2022/02/23 14:49:12;;;;;;;0.90;0.70;;;;;;;;;;5050378;28;20032;-56
2022/02/23 14:51:39;;;;;;;1.92;0.50;;;;;;;;;;5049806;28;20028;-57